Time,TemperatureF,DewpointF,PressureIn,WindDirection,WindDirectionDegrees,WindSpeedMPH,WindSpeedGustMPH,Humidity,HourlyPrecipIn,Conditions,Clouds,dailyrainin,SoftwareType,DateUTC
2013-07-24 00:09:00,64.7,59.0,29.66,NNW,348,2.0,3.0,81,0.00,,,0.00,weatherlink.com 1.10,2013-07-23 23:09:00,
2013-07-24 00:25:00,64.6,58.0,29.66,NE,46,0.0,2.0,80,0.00,,,0.00,weatherlink.com 1.10,2013-07-23 23:25:00,
2013-07-24 00:55:00,64.5,59.0,29.66,SSE,152,0.0,2.0,81,0.00,,,0.00,weatherlink.com 1.10,2013-07-23 23:55:00,
2013-07-24 01:10:00,64.1,58.0,29.66,South,181,0.0,1.0,81,0.00,,,0.00,weatherlink.com 1.10,2013-07-24 00:10:00,
2013-07-24 01:25:00,63.8,58.0,29.65,SW,224,0.0,2.0,82,0.00,,,0.00,weatherlink.com 1.10,2013-07-24 00:25:00,
2013-07-24 01:40:00,63.8,58.0,29.66,WSW,246,0.0,2.0,82,0.00,,,0.00,weatherlink.com 1.10,2013-07-24 00:40:00,
2013-07-24 01:55:00,64.0,58.0,29.66,SSW,210,3.0,3.0,82,0.00,,,0.00,weatherlink.com 1.10,2013-07-24 00:55:00,
2013-07-24 02:10:00,63.9,58.0,29.66,WSW,242,1.0,2.0,82,0.00,,,0.00,weatherlink.com 1.10,2013-07-24 01:10:00,
2013-07-24 02:25:00,63.6,58.0,29.66,North,5,0.0,0.0,82,0.00,,,0.00,weatherlink.com 1.10,2013-07-24 01:25:00,
2013-07-24 02:40:00,63.5,58.0,29.66,West,277,0.0,0.0,82,0.00,,,0.00,weatherlink.com 1.10,2013-07-24 01:40:00,
2013-07-24 02:55:00,63.4,58.0,29.67,WSW,245,0.0,0.0,82,0.00,,,0.00,weatherlink.com 1.10,2013-07-24 01:55:00,
2013-07-24 03:10:00,63.6,58.0,29.67,West,259,0.0,0.0,82,0.00,,,0.00,weatherlink.com 1.10,2013-07-24 02:10:00,
2013-07-24 03:25:00,63.5,58.0,29.67,SSW,204,0.0,0.0,82,0.00,,,0.00,weatherlink.com 1.10,2013-07-24 02:25:00,
2013-07-24 03:40:00,63.3,57.0,29.66,WSW,248,0.0,0.0,81,0.00,,,0.00,weatherlink.com 1.10,2013-07-24 02:40:00,
2013-07-24 03:55:00,63.0,57.0,29.66,South,191,0.0,0.0,80,0.00,,,0.00,weatherlink.com 1.10,2013-07-24 02:55:00,
2013-07-24 04:10:00,62.8,57.0,29.66,NNE,18,0.0,0.0,81,0.00,,,0.00,weatherlink.com 1.10,2013-07-24 03:10:00,
2013-07-24 04:25:00,62.4,57.0,29.66,ESE,122,0.0,0.0,83,0.00,,,0.00,weatherlink.com 1.10,2013-07-24 03:25:00,
2013-07-24 04:40:00,62.2,57.0,29.66,SW,233,0.0,0.0,82,0.00,,,0.00,weatherlink.com 1.10,2013-07-24 03:40:00,
2013-07-24 04:55:00,63.0,56.0,29.66,SSW,197,0.0,0.0,78,0.00,,,0.00,weatherlink.com 1.10,2013-07-24 03:55:00,
2013-07-24 05:10:00,63.8,56.0,29.66,West,259,0.0,0.0,75,0.00,,,0.00,weatherlink.com 1.10,2013-07-24 04:10:00,
2013-07-24 05:25:00,64.5,56.0,29.66,WSW,249,0.0,0.0,74,0.00,,,0.00,weatherlink.com 1.10,2013-07-24 04:25:00,
2013-07-24 05:40:00,64.0,57.0,29.66,SW,220,0.0,0.0,77,0.00,,,0.00,weatherlink.com 1.10,2013-07-24 04:40:00,
2013-07-24 05:55:00,63.5,57.0,29.66,SSE,163,0.0,0.0,79,0.00,,,0.00,weatherlink.com 1.10,2013-07-24 04:55:00,
2013-07-24 06:10:00,63.5,57.0,29.66,WSW,242,0.0,0.0,79,0.00,,,0.00,weatherlink.com 1.10,2013-07-24 05:10:00,
2013-07-24 06:25:00,63.6,57.0,29.66,WSW,250,0.0,0.0,79,0.00,,,0.00,weatherlink.com 1.10,2013-07-24 05:25:00,
2013-07-24 06:40:00,63.9,57.0,29.66,West,259,0.0,0.0,78,0.00,,,0.00,weatherlink.com 1.10,2013-07-24 05:40:00,
2013-07-24 06:55:00,64.7,57.0,29.67,WSW,256,0.0,0.0,75,0.00,,,0.00,weatherlink.com 1.10,2013-07-24 05:55:00,
2013-07-24 07:10:00,65.2,56.0,29.67,SSW,212,0.0,0.0,72,0.00,,,0.00,weatherlink.com 1.10,2013-07-24 06:10:00,
2013-07-24 07:25:00,66.4,56.0,29.67,SSW,201,0.0,0.0,70,0.00,,,0.00,weatherlink.com 1.10,2013-07-24 06:25:00,
2013-07-24 07:40:00,66.8,56.0,29.67,SSE,159,0.0,0.0,68,0.00,,,0.00,weatherlink.com 1.10,2013-07-24 06:40:00,
2013-07-24 07:55:00,66.4,57.0,29.67,ESE,113,0.0,0.0,72,0.00,,,0.00,weatherlink.com 1.10,2013-07-24 06:55:00,
2013-07-24 08:10:00,66.0,58.0,29.67,SE,125,0.0,0.0,74,0.00,,,0.00,weatherlink.com 1.10,2013-07-24 07:10:00,
2013-07-24 08:25:00,66.2,58.0,29.67,East,79,0.0,0.0,75,0.00,,,0.00,weatherlink.com 1.10,2013-07-24 07:25:00,
2013-07-24 08:40:00,66.7,58.0,29.66,ESE,108,0.0,0.0,74,0.00,,,0.00,weatherlink.com 1.10,2013-07-24 07:40:00,
2013-07-24 08:55:00,67.1,58.0,29.67,SW,219,1.0,4.0,73,0.00,,,0.00,weatherlink.com 1.10,2013-07-24 07:55:00,
2013-07-24 09:10:00,67.7,58.0,29.66,SSE,166,1.0,7.0,72,0.00,,,0.00,weatherlink.com 1.10,2013-07-24 08:10:00,
2013-07-24 09:25:00,68.0,58.0,29.66,SW,219,5.0,7.0,70,0.00,,,0.00,weatherlink.com 1.10,2013-07-24 08:25:00,
2013-07-24 09:40:00,70.2,58.0,29.66,West,268,5.0,8.0,66,0.00,,,0.00,weatherlink.com 1.10,2013-07-24 08:40:00,
2013-07-24 09:55:00,70.6,59.0,29.66,SSE,152,4.0,6.0,66,0.00,,,0.00,weatherlink.com 1.10,2013-07-24 08:55:00,
2013-07-24 10:10:00,69.9,58.0,29.66,ESE,116,2.0,11.0,66,0.00,,,0.00,weatherlink.com 1.10,2013-07-24 09:10:00,
2013-07-24 10:25:00,69.3,58.0,29.66,SSW,197,2.0,9.0,68,0.00,,,0.00,weatherlink.com 1.10,2013-07-24 09:25:00,
2013-07-24 10:40:00,69.1,59.0,29.66,SW,235,1.0,6.0,69,0.00,,,0.00,weatherlink.com 1.10,2013-07-24 09:40:00,
2013-07-24 10:56:00,69.6,58.0,29.66,SSW,210,2.0,8.0,66,0.00,,,0.00,weatherlink.com 1.10,2013-07-24 09:56:00,
2013-07-24 11:11:00,69.7,58.0,29.66,West,262,6.0,11.0,66,0.00,,,0.00,weatherlink.com 1.10,2013-07-24 10:11:00,
2013-07-24 11:26:00,70.1,59.0,29.65,SW,219,5.0,8.0,68,0.00,,,0.00,weatherlink.com 1.10,2013-07-24 10:26:00,
2013-07-24 11:41:00,70.7,59.0,29.65,SE,130,4.0,6.0,67,0.00,,,0.00,weatherlink.com 1.10,2013-07-24 10:41:00,
2013-07-24 11:56:00,71.2,58.0,29.65,SSE,148,6.0,9.0,64,0.00,,,0.00,weatherlink.com 1.10,2013-07-24 10:56:00,
2013-07-24 12:11:00,71.5,58.0,29.65,SSW,193,0.0,8.0,63,0.00,,,0.00,weatherlink.com 1.10,2013-07-24 11:11:00,
2013-07-24 12:26:00,71.7,58.0,29.64,SW,222,10.0,11.0,62,0.00,,,0.00,weatherlink.com 1.10,2013-07-24 11:26:00,
2013-07-24 12:41:00,70.5,59.0,29.64,SSE,155,4.0,9.0,66,0.00,,,0.00,weatherlink.com 1.10,2013-07-24 11:41:00,
2013-07-24 12:56:00,70.6,58.0,29.64,SW,228,3.0,7.0,65,0.00,,,0.00,weatherlink.com 1.10,2013-07-24 11:56:00,
2013-07-24 13:11:00,70.9,58.0,29.65,SSE,148,5.0,10.0,64,0.00,,,0.00,weatherlink.com 1.10,2013-07-24 12:11:00,
2013-07-24 13:26:00,71.2,57.0,29.64,SW,235,3.0,11.0,62,0.00,,,0.00,weatherlink.com 1.10,2013-07-24 12:26:00,
2013-07-24 13:41:00,72.7,58.0,29.64,West,273,5.0,8.0,60,0.00,,,0.00,weatherlink.com 1.10,2013-07-24 12:41:00,
2013-07-24 13:56:00,72.1,60.0,29.63,SE,139,0.0,6.0,65,0.00,,,0.00,weatherlink.com 1.10,2013-07-24 12:56:00,
2013-07-24 14:11:00,72.0,59.0,29.64,SSE,153,9.0,11.0,63,0.00,,,0.00,weatherlink.com 1.10,2013-07-24 13:11:00,
2013-07-24 14:26:00,70.2,60.0,29.64,SSE,160,4.0,11.0,71,0.00,,,0.00,weatherlink.com 1.10,2013-07-24 13:26:00,